Aérodrome :
LOGIN :

S'inscrire | Disclaimer

   EN    FR    IT 

 










Légende :    VFR   VFR Marginal   IFR   IFR Intensif   IFR Très Intensif
Visi : 
Plafond : 
>= 8 km
>= 3000ft
5 à 8 km
1000 à 3000 ft
1500m à 5 km
500 à 1000 ft
800 à 1500m
200 à 500 ft
< 800m
< 200 ft
Symboles :   Orages  Brouillard  Fortes neiges  Fortes précipitations  Vent > 20 kt
SIGMETs :   Divers  Orages  Givrage  Turbulence  Onde Orograph.  Cendres Volcan.






- Altitude de l'aérodrome : 291 ft
- Code IATA : ORY


LFPO - Paris-Orly

DERNIER METAR :
  • 100430Z 22003KT CAVOK 01/00 Q1028 NOSIG

METARs EXPIRÉS :
  • 100400Z 22003KT CAVOK 01/00 Q1028 NOSIG
  • 100330Z 24003KT CAVOK M00/M01 Q1028 NOSIG
  • 100300Z 22004KT CAVOK 00/M00 Q1028 NOSIG
  • 100230Z 22002KT CAVOK 00/M01 Q1028 NOSIG

TAF TAF LFPO
Valide du 10 à 00h jusqu'au 11 à 06h UTC


092300Z 1000/1106 28005KT CAVOK
BECMG 1010/1012 18010KT
TEMPO 1015/1024 20015G25KT
TEMPO 1100/1106 4000 RA BKN008
ATIS : +33 1 49 75 65 80



MET'MAP, la Météo Aéronautique d'un coup d'oeil ! - Copyright ORBIFLY Décembre 2007 - Disclaimer

ORBIFLY MET'MAP TEAM :

Programmation & Développement : Alexandra Zaïnal
Sur une idée originale de : Baudouin d'Aumeries
Assistance à la programmation : Marc-Olivier Méhu
Soutien technique & logistique : Manuel Goepfert

Contact : metmap@orbifly.com




SOURCES & CREDITS :

   NOAA